sensor_id;sensor_type;location;lat;lon;timestamp;temperature;humidity
68433;DHT22;55412;51.350;17.056;2023-07-31T00:00:16;18.80;77.40
68433;DHT22;55412;51.350;17.056;2023-07-31T00:02:42;18.80;77.40
68433;DHT22;55412;51.350;17.056;2023-07-31T00:05:09;18.80;77.20
68433;DHT22;55412;51.350;17.056;2023-07-31T00:07:35;18.80;77.10
68433;DHT22;55412;51.350;17.056;2023-07-31T00:10:01;18.80;77.10
68433;DHT22;55412;51.350;17.056;2023-07-31T00:12:28;18.80;77.00
68433;DHT22;55412;51.350;17.056;2023-07-31T00:14:54;18.80;76.90
68433;DHT22;55412;51.350;17.056;2023-07-31T00:17:20;18.80;76.80
68433;DHT22;55412;51.350;17.056;2023-07-31T00:19:46;18.80;76.70
68433;DHT22;55412;51.350;17.056;2023-07-31T00:22:14;18.80;76.40
68433;DHT22;55412;51.350;17.056;2023-07-31T00:24:41;18.80;76.20
68433;DHT22;55412;51.350;17.056;2023-07-31T00:27:07;18.80;75.90
68433;DHT22;55412;51.350;17.056;2023-07-31T00:29:33;18.80;75.40
68433;DHT22;55412;51.350;17.056;2023-07-31T00:31:59;18.80;75.40
68433;DHT22;55412;51.350;17.056;2023-07-31T00:34:26;18.80;75.10
68433;DHT22;55412;51.350;17.056;2023-07-31T00:36:52;18.80;74.90
68433;DHT22;55412;51.350;17.056;2023-07-31T00:39:18;18.80;74.50
68433;DHT22;55412;51.350;17.056;2023-07-31T00:41:44;18.80;74.20
68433;DHT22;55412;51.350;17.056;2023-07-31T00:44:11;18.80;74.20
68433;DHT22;55412;51.350;17.056;2023-07-31T00:46:37;18.80;74.00
68433;DHT22;55412;51.350;17.056;2023-07-31T00:49:04;18.80;73.60
68433;DHT22;55412;51.350;17.056;2023-07-31T00:51:30;18.80;73.30
68433;DHT22;55412;51.350;17.056;2023-07-31T00:53:57;18.80;73.30
68433;DHT22;55412;51.350;17.056;2023-07-31T00:56:24;18.80;73.40
68433;DHT22;55412;51.350;17.056;2023-07-31T00:58:51;18.80;73.30
68433;DHT22;55412;51.350;17.056;2023-07-31T01:01:17;18.80;73.20
68433;DHT22;55412;51.350;17.056;2023-07-31T01:03:43;18.80;73.40
68433;DHT22;55412;51.350;17.056;2023-07-31T01:06:22;18.70;73.40
68433;DHT22;55412;51.350;17.056;2023-07-31T01:09:09;18.80;73.20
68433;DHT22;55412;51.350;17.056;2023-07-31T01:11:48;18.70;73.10
68433;DHT22;55412;51.350;17.056;2023-07-31T01:14:18;18.80;73.00
68433;DHT22;55412;51.350;17.056;2023-07-31T01:16:44;18.80;72.70
68433;DHT22;55412;51.350;17.056;2023-07-31T01:19:11;18.70;73.00
68433;DHT22;55412;51.350;17.056;2023-07-31T01:24:36;18.70;72.80
68433;DHT22;55412;51.350;17.056;2023-07-31T01:27:19;18.70;72.90
68433;DHT22;55412;51.350;17.056;2023-07-31T01:32:21;18.70;72.90
68433;DHT22;55412;51.350;17.056;2023-07-31T01:34:49;18.60;73.00
68433;DHT22;55412;51.350;17.056;2023-07-31T01:37:15;18.60;72.90
68433;DHT22;55412;51.350;17.056;2023-07-31T01:39:41;18.60;72.80
68433;DHT22;55412;51.350;17.056;2023-07-31T01:42:07;18.60;72.80
68433;DHT22;55412;51.350;17.056;2023-07-31T01:44:34;18.60;73.00
68433;DHT22;55412;51.350;17.056;2023-07-31T01:47:00;18.60;73.00
68433;DHT22;55412;51.350;17.056;2023-07-31T01:49:26;18.60;72.60
68433;DHT22;55412;51.350;17.056;2023-07-31T01:51:52;18.50;72.60
68433;DHT22;55412;51.350;17.056;2023-07-31T01:54:18;18.50;72.60
68433;DHT22;55412;51.350;17.056;2023-07-31T01:56:44;18.50;72.60
68433;DHT22;55412;51.350;17.056;2023-07-31T01:59:11;18.50;72.50
68433;DHT22;55412;51.350;17.056;2023-07-31T02:01:37;18.50;72.70
68433;DHT22;55412;51.350;17.056;2023-07-31T02:04:03;18.50;72.60
68433;DHT22;55412;51.350;17.056;2023-07-31T02:06:30;18.50;72.50
68433;DHT22;55412;51.350;17.056;2023-07-31T02:08:56;18.40;72.60
68433;DHT22;55412;51.350;17.056;2023-07-31T02:11:22;18.40;72.60
68433;DHT22;55412;51.350;17.056;2023-07-31T02:13:48;18.40;72.50
68433;DHT22;55412;51.350;17.056;2023-07-31T02:16:15;18.40;72.60
68433;DHT22;55412;51.350;17.056;2023-07-31T02:18:41;18.40;72.10
68433;DHT22;55412;51.350;17.056;2023-07-31T02:21:07;18.40;71.80
68433;DHT22;55412;51.350;17.056;2023-07-31T02:23:33;18.40;71.80
68433;DHT22;55412;51.350;17.056;2023-07-31T02:25:59;18.40;71.60
68433;DHT22;55412;51.350;17.056;2023-07-31T02:28:25;18.40;71.50
68433;DHT22;55412;51.350;17.056;2023-07-31T02:30:51;18.30;71.30
68433;DHT22;55412;51.350;17.056;2023-07-31T02:33:18;18.30;71.30
68433;DHT22;55412;51.350;17.056;2023-07-31T02:35:44;18.30;71.50
68433;DHT22;55412;51.350;17.056;2023-07-31T02:38:10;18.30;71.10
68433;DHT22;55412;51.350;17.056;2023-07-31T02:40:36;18.20;70.90
68433;DHT22;55412;51.350;17.056;2023-07-31T02:43:02;18.20;70.90
68433;DHT22;55412;51.350;17.056;2023-07-31T02:45:28;18.20;70.90
68433;DHT22;55412;51.350;17.056;2023-07-31T02:47:55;18.20;70.80
68433;DHT22;55412;51.350;17.056;2023-07-31T02:50:21;18.20;70.80
68433;DHT22;55412;51.350;17.056;2023-07-31T02:52:47;18.10;70.70
68433;DHT22;55412;51.350;17.056;2023-07-31T02:55:13;18.10;70.70
68433;DHT22;55412;51.350;17.056;2023-07-31T02:57:39;18.10;70.50
68433;DHT22;55412;51.350;17.056;2023-07-31T03:00:06;18.00;70.60
68433;DHT22;55412;51.350;17.056;2023-07-31T03:02:33;18.00;70.60
68433;DHT22;55412;51.350;17.056;2023-07-31T03:04:59;18.10;70.50
68433;DHT22;55412;51.350;17.056;2023-07-31T03:07:25;18.00;70.70
68433;DHT22;55412;51.350;17.056;2023-07-31T03:09:51;18.00;70.60
68433;DHT22;55412;51.350;17.056;2023-07-31T03:12:17;18.00;70.50
68433;DHT22;55412;51.350;17.056;2023-07-31T03:14:45;18.00;70.30
68433;DHT22;55412;51.350;17.056;2023-07-31T03:17:11;18.00;70.30
68433;DHT22;55412;51.350;17.056;2023-07-31T03:19:37;18.00;70.20
68433;DHT22;55412;51.350;17.056;2023-07-31T03:22:04;18.00;70.60
68433;DHT22;55412;51.350;17.056;2023-07-31T03:24:30;18.00;70.70
68433;DHT22;55412;51.350;17.056;2023-07-31T03:26:56;18.00;70.10
68433;DHT22;55412;51.350;17.056;2023-07-31T03:29:23;17.90;70.40
68433;DHT22;55412;51.350;17.056;2023-07-31T03:31:49;17.90;70.50
68433;DHT22;55412;51.350;17.056;2023-07-31T03:34:15;17.90;70.40
68433;DHT22;55412;51.350;17.056;2023-07-31T03:36:41;17.90;70.60
68433;DHT22;55412;51.350;17.056;2023-07-31T03:39:08;17.90;70.00
68433;DHT22;55412;51.350;17.056;2023-07-31T03:41:34;17.90;70.30
68433;DHT22;55412;51.350;17.056;2023-07-31T03:44:00;17.90;70.30
68433;DHT22;55412;51.350;17.056;2023-07-31T03:46:27;17.80;70.50
68433;DHT22;55412;51.350;17.056;2023-07-31T03:48:53;17.80;70.60
68433;DHT22;55412;51.350;17.056;2023-07-31T03:51:19;17.80;70.80
68433;DHT22;55412;51.350;17.056;2023-07-31T03:53:45;17.80;70.90
68433;DHT22;55412;51.350;17.056;2023-07-31T03:56:11;17.80;70.70
68433;DHT22;55412;51.350;17.056;2023-07-31T03:58:38;17.80;70.80
68433;DHT22;55412;51.350;17.056;2023-07-31T04:01:04;17.80;70.90
68433;DHT22;55412;51.350;17.056;2023-07-31T04:03:30;17.80;70.70
68433;DHT22;55412;51.350;17.056;2023-07-31T04:05:56;17.70;70.70
68433;DHT22;55412;51.350;17.056;2023-07-31T04:08:23;17.70;71.10
68433;DHT22;55412;51.350;17.056;2023-07-31T04:10:49;17.60;71.00
68433;DHT22;55412;51.350;17.056;2023-07-31T04:13:17;17.60;71.30
68433;DHT22;55412;51.350;17.056;2023-07-31T04:15:50;17.60;71.50
68433;DHT22;55412;51.350;17.056;2023-07-31T04:18:17;17.60;71.30
68433;DHT22;55412;51.350;17.056;2023-07-31T04:20:43;17.60;71.30
68433;DHT22;55412;51.350;17.056;2023-07-31T04:23:10;17.60;71.60
68433;DHT22;55412;51.350;17.056;2023-07-31T04:25:36;17.60;71.70
68433;DHT22;55412;51.350;17.056;2023-07-31T04:28:02;17.60;71.50
68433;DHT22;55412;51.350;17.056;2023-07-31T04:30:29;17.60;71.80
68433;DHT22;55412;51.350;17.056;2023-07-31T04:32:55;17.60;71.50
68433;DHT22;55412;51.350;17.056;2023-07-31T04:35:21;17.60;71.70
68433;DHT22;55412;51.350;17.056;2023-07-31T04:37:48;17.70;71.30
68433;DHT22;55412;51.350;17.056;2023-07-31T04:40:16;17.70;70.90
68433;DHT22;55412;51.350;17.056;2023-07-31T04:42:42;17.70;70.80
68433;DHT22;55412;51.350;17.056;2023-07-31T04:45:09;17.70;71.00
68433;DHT22;55412;51.350;17.056;2023-07-31T04:47:35;17.70;70.70
68433;DHT22;55412;51.350;17.056;2023-07-31T04:50:01;17.70;70.70
68433;DHT22;55412;51.350;17.056;2023-07-31T04:52:27;17.70;70.70
68433;DHT22;55412;51.350;17.056;2023-07-31T04:54:53;17.70;71.30
68433;DHT22;55412;51.350;17.056;2023-07-31T04:57:19;17.80;71.00
68433;DHT22;55412;51.350;17.056;2023-07-31T04:59:45;17.80;71.40
68433;DHT22;55412;51.350;17.056;2023-07-31T05:02:12;17.90;71.70
68433;DHT22;55412;51.350;17.056;2023-07-31T05:04:39;17.90;71.30
68433;DHT22;55412;51.350;17.056;2023-07-31T05:07:05;17.90;71.50
68433;DHT22;55412;51.350;17.056;2023-07-31T05:09:31;18.00;71.40
68433;DHT22;55412;51.350;17.056;2023-07-31T05:11:57;18.00;70.90
68433;DHT22;55412;51.350;17.056;2023-07-31T05:14:25;18.00;70.50
68433;DHT22;55412;51.350;17.056;2023-07-31T05:16:51;18.10;69.90
68433;DHT22;55412;51.350;17.056;2023-07-31T05:19:18;18.10;70.00
68433;DHT22;55412;51.350;17.056;2023-07-31T05:21:44;18.10;69.80
68433;DHT22;55412;51.350;17.056;2023-07-31T05:24:11;18.20;69.20
68433;DHT22;55412;51.350;17.056;2023-07-31T05:26:38;18.20;69.70
68433;DHT22;55412;51.350;17.056;2023-07-31T05:29:04;18.20;69.30
68433;DHT22;55412;51.350;17.056;2023-07-31T05:31:30;18.20;69.30
68433;DHT22;55412;51.350;17.056;2023-07-31T05:33:58;18.20;69.90
68433;DHT22;55412;51.350;17.056;2023-07-31T05:36:24;18.20;69.60
68433;DHT22;55412;51.350;17.056;2023-07-31T05:38:50;18.20;69.80
68433;DHT22;55412;51.350;17.056;2023-07-31T05:41:16;18.20;69.70
68433;DHT22;55412;51.350;17.056;2023-07-31T05:43:44;18.20;69.70
68433;DHT22;55412;51.350;17.056;2023-07-31T05:46:10;18.20;69.10
68433;DHT22;55412;51.350;17.056;2023-07-31T05:48:37;18.20;69.90
68433;DHT22;55412;51.350;17.056;2023-07-31T05:51:03;18.20;69.70
68433;DHT22;55412;51.350;17.056;2023-07-31T05:53:30;18.20;69.00
68433;DHT22;55412;51.350;17.056;2023-07-31T05:55:56;18.20;69.50
68433;DHT22;55412;51.350;17.056;2023-07-31T05:58:22;18.20;69.30
68433;DHT22;55412;51.350;17.056;2023-07-31T06:00:49;18.30;69.30
68433;DHT22;55412;51.350;17.056;2023-07-31T06:03:15;18.30;69.30
68433;DHT22;55412;51.350;17.056;2023-07-31T06:05:41;18.30;69.60
68433;DHT22;55412;51.350;17.056;2023-07-31T06:08:07;18.30;69.00
68433;DHT22;55412;51.350;17.056;2023-07-31T06:10:34;18.30;68.50
68433;DHT22;55412;51.350;17.056;2023-07-31T06:13:00;18.30;68.80
68433;DHT22;55412;51.350;17.056;2023-07-31T06:15:26;18.40;68.40
68433;DHT22;55412;51.350;17.056;2023-07-31T06:17:52;18.40;68.10
68433;DHT22;55412;51.350;17.056;2023-07-31T06:20:19;18.40;68.70
68433;DHT22;55412;51.350;17.056;2023-07-31T06:22:45;18.40;68.00
68433;DHT22;55412;51.350;17.056;2023-07-31T06:25:11;18.40;68.10
68433;DHT22;55412;51.350;17.056;2023-07-31T06:27:38;18.40;67.90
68433;DHT22;55412;51.350;17.056;2023-07-31T06:30:05;18.50;67.70
68433;DHT22;55412;51.350;17.056;2023-07-31T06:32:32;18.50;67.60
68433;DHT22;55412;51.350;17.056;2023-07-31T06:34:58;18.50;67.80
68433;DHT22;55412;51.350;17.056;2023-07-31T06:37:28;18.50;68.00
68433;DHT22;55412;51.350;17.056;2023-07-31T06:39:54;18.50;68.00
68433;DHT22;55412;51.350;17.056;2023-07-31T06:42:20;18.60;67.90
68433;DHT22;55412;51.350;17.056;2023-07-31T06:44:46;18.60;68.00
68433;DHT22;55412;51.350;17.056;2023-07-31T06:47:12;18.60;67.30
68433;DHT22;55412;51.350;17.056;2023-07-31T06:49:39;18.70;67.60
68433;DHT22;55412;51.350;17.056;2023-07-31T06:52:08;18.70;66.70
68433;DHT22;55412;51.350;17.056;2023-07-31T06:54:35;18.70;67.60
68433;DHT22;55412;51.350;17.056;2023-07-31T06:57:01;18.70;67.20
68433;DHT22;55412;51.350;17.056;2023-07-31T06:59:27;18.80;67.20
68433;DHT22;55412;51.350;17.056;2023-07-31T07:01:53;18.80;66.70
68433;DHT22;55412;51.350;17.056;2023-07-31T07:04:20;18.80;67.20
68433;DHT22;55412;51.350;17.056;2023-07-31T07:06:48;18.80;66.70
68433;DHT22;55412;51.350;17.056;2023-07-31T07:09:14;18.80;67.20
68433;DHT22;55412;51.350;17.056;2023-07-31T07:11:40;18.80;67.20
68433;DHT22;55412;51.350;17.056;2023-07-31T07:14:06;18.90;67.00
68433;DHT22;55412;51.350;17.056;2023-07-31T07:16:33;18.90;66.40
68433;DHT22;55412;51.350;17.056;2023-07-31T07:18:59;19.00;65.70
68433;DHT22;55412;51.350;17.056;2023-07-31T07:21:25;19.00;66.20
68433;DHT22;55412;51.350;17.056;2023-07-31T07:23:51;19.10;65.60
68433;DHT22;55412;51.350;17.056;2023-07-31T07:26:17;19.10;66.20
68433;DHT22;55412;51.350;17.056;2023-07-31T07:28:43;19.20;66.80
68433;DHT22;55412;51.350;17.056;2023-07-31T07:31:10;19.30;67.00
68433;DHT22;55412;51.350;17.056;2023-07-31T07:33:36;19.40;65.30
68433;DHT22;55412;51.350;17.056;2023-07-31T07:36:02;19.50;65.30
68433;DHT22;55412;51.350;17.056;2023-07-31T07:38:29;19.60;66.10
68433;DHT22;55412;51.350;17.056;2023-07-31T07:40:55;19.70;66.10
68433;DHT22;55412;51.350;17.056;2023-07-31T07:43:21;19.80;63.90
68433;DHT22;55412;51.350;17.056;2023-07-31T07:45:48;20.00;64.40
68433;DHT22;55412;51.350;17.056;2023-07-31T07:48:14;20.10;62.50
68433;DHT22;55412;51.350;17.056;2023-07-31T07:50:42;20.20;63.70
68433;DHT22;55412;51.350;17.056;2023-07-31T07:53:08;20.40;64.10
68433;DHT22;55412;51.350;17.056;2023-07-31T07:55:35;20.50;63.60
68433;DHT22;55412;51.350;17.056;2023-07-31T07:58:01;20.70;61.40
68433;DHT22;55412;51.350;17.056;2023-07-31T08:00:27;20.80;60.70
68433;DHT22;55412;51.350;17.056;2023-07-31T08:02:53;20.80;59.40
68433;DHT22;55412;51.350;17.056;2023-07-31T08:05:19;20.90;59.70
68433;DHT22;55412;51.350;17.056;2023-07-31T08:07:46;20.90;58.90
68433;DHT22;55412;51.350;17.056;2023-07-31T08:10:12;20.90;59.20
68433;DHT22;55412;51.350;17.056;2023-07-31T08:12:38;21.00;59.50
68433;DHT22;55412;51.350;17.056;2023-07-31T08:15:05;21.00;58.70
68433;DHT22;55412;51.350;17.056;2023-07-31T08:17:36;21.00;59.40
68433;DHT22;55412;51.350;17.056;2023-07-31T08:20:02;21.00;59.60
68433;DHT22;55412;51.350;17.056;2023-07-31T08:22:28;21.00;59.50
68433;DHT22;55412;51.350;17.056;2023-07-31T08:24:55;21.00;59.90
68433;DHT22;55412;51.350;17.056;2023-07-31T08:27:25;21.00;60.30
68433;DHT22;55412;51.350;17.056;2023-07-31T08:29:52;21.00;61.10
68433;DHT22;55412;51.350;17.056;2023-07-31T08:32:18;21.10;60.20
68433;DHT22;55412;51.350;17.056;2023-07-31T08:34:45;21.10;60.30
68433;DHT22;55412;51.350;17.056;2023-07-31T08:37:11;21.10;60.30
68433;DHT22;55412;51.350;17.056;2023-07-31T08:39:37;21.20;60.20
68433;DHT22;55412;51.350;17.056;2023-07-31T08:42:08;21.20;59.60
68433;DHT22;55412;51.350;17.056;2023-07-31T08:44:39;21.20;60.00
68433;DHT22;55412;51.350;17.056;2023-07-31T08:47:06;21.20;58.80
68433;DHT22;55412;51.350;17.056;2023-07-31T08:49:32;21.20;59.20
68433;DHT22;55412;51.350;17.056;2023-07-31T08:51:59;21.20;59.20
68433;DHT22;55412;51.350;17.056;2023-07-31T08:54:26;21.20;59.20
68433;DHT22;55412;51.350;17.056;2023-07-31T08:56:57;21.20;59.90
68433;DHT22;55412;51.350;17.056;2023-07-31T08:59:31;21.20;61.30
68433;DHT22;55412;51.350;17.056;2023-07-31T09:02:08;21.20;61.20
68433;DHT22;55412;51.350;17.056;2023-07-31T09:04:35;21.20;61.50
68433;DHT22;55412;51.350;17.056;2023-07-31T09:07:02;21.10;62.50
68433;DHT22;55412;51.350;17.056;2023-07-31T09:09:33;21.10;62.70
68433;DHT22;55412;51.350;17.056;2023-07-31T09:11:59;21.10;62.80
68433;DHT22;55412;51.350;17.056;2023-07-31T09:14:26;21.10;62.50
68433;DHT22;55412;51.350;17.056;2023-07-31T09:16:56;21.10;62.30
68433;DHT22;55412;51.350;17.056;2023-07-31T09:19:26;21.00;63.10
68433;DHT22;55412;51.350;17.056;2023-07-31T09:21:55;21.00;63.20
68433;DHT22;55412;51.350;17.056;2023-07-31T09:24:32;21.00;63.60
68433;DHT22;55412;51.350;17.056;2023-07-31T09:27:00;21.00;62.90
68433;DHT22;55412;51.350;17.056;2023-07-31T09:29:28;21.00;61.90
68433;DHT22;55412;51.350;17.056;2023-07-31T09:31:55;21.00;62.20
68433;DHT22;55412;51.350;17.056;2023-07-31T09:34:30;20.90;62.60
68433;DHT22;55412;51.350;17.056;2023-07-31T09:37:02;20.90;62.00
68433;DHT22;55412;51.350;17.056;2023-07-31T09:39:29;20.90;62.40
68433;DHT22;55412;51.350;17.056;2023-07-31T09:41:57;20.80;62.30
68433;DHT22;55412;51.350;17.056;2023-07-31T09:44:38;20.80;62.00
68433;DHT22;55412;51.350;17.056;2023-07-31T09:47:06;20.80;62.10
68433;DHT22;55412;51.350;17.056;2023-07-31T09:49:32;20.80;62.10
68433;DHT22;55412;51.350;17.056;2023-07-31T09:51:59;20.80;62.40
68433;DHT22;55412;51.350;17.056;2023-07-31T09:54:25;20.80;63.20
68433;DHT22;55412;51.350;17.056;2023-07-31T09:56:52;20.70;63.30
68433;DHT22;55412;51.350;17.056;2023-07-31T09:59:20;20.70;63.00
68433;DHT22;55412;51.350;17.056;2023-07-31T10:01:47;20.60;63.10
68433;DHT22;55412;51.350;17.056;2023-07-31T10:04:14;20.60;63.20
68433;DHT22;55412;51.350;17.056;2023-07-31T10:06:43;20.50;63.30
68433;DHT22;55412;51.350;17.056;2023-07-31T10:09:15;20.50;63.10
68433;DHT22;55412;51.350;17.056;2023-07-31T10:11:53;20.40;62.90
68433;DHT22;55412;51.350;17.056;2023-07-31T10:14:27;20.40;63.10
68433;DHT22;55412;51.350;17.056;2023-07-31T10:16:55;20.40;63.50
68433;DHT22;55412;51.350;17.056;2023-07-31T10:19:22;20.30;63.70
68433;DHT22;55412;51.350;17.056;2023-07-31T10:21:49;20.20;64.10
68433;DHT22;55412;51.350;17.056;2023-07-31T10:24:15;20.20;65.40
68433;DHT22;55412;51.350;17.056;2023-07-31T10:26:45;20.10;65.50
68433;DHT22;55412;51.350;17.056;2023-07-31T10:29:11;20.10;66.50
68433;DHT22;55412;51.350;17.056;2023-07-31T10:31:40;20.00;67.30
68433;DHT22;55412;51.350;17.056;2023-07-31T10:34:06;20.00;68.70
68433;DHT22;55412;51.350;17.056;2023-07-31T10:36:33;20.00;67.30
68433;DHT22;55412;51.350;17.056;2023-07-31T10:38:59;20.10;67.40
68433;DHT22;55412;51.350;17.056;2023-07-31T10:41:30;20.10;67.30
68433;DHT22;55412;51.350;17.056;2023-07-31T10:44:00;20.10;66.80
68433;DHT22;55412;51.350;17.056;2023-07-31T10:46:28;20.20;66.80
68433;DHT22;55412;51.350;17.056;2023-07-31T10:49:03;20.20;67.00
68433;DHT22;55412;51.350;17.056;2023-07-31T10:51:36;20.20;66.90
68433;DHT22;55412;51.350;17.056;2023-07-31T10:54:16;20.20;66.40
68433;DHT22;55412;51.350;17.056;2023-07-31T10:56:46;20.20;66.20
68433;DHT22;55412;51.350;17.056;2023-07-31T10:59:13;20.20;65.50
68433;DHT22;55412;51.350;17.056;2023-07-31T11:01:55;20.20;65.10
68433;DHT22;55412;51.350;17.056;2023-07-31T11:04:28;20.30;65.20
68433;DHT22;55412;51.350;17.056;2023-07-31T11:06:58;20.30;65.40
68433;DHT22;55412;51.350;17.056;2023-07-31T11:09:31;20.20;65.50
68433;DHT22;55412;51.350;17.056;2023-07-31T11:11:59;20.20;65.90
68433;DHT22;55412;51.350;17.056;2023-07-31T11:14:25;20.10;66.50
68433;DHT22;55412;51.350;17.056;2023-07-31T11:16:52;20.10;66.80
68433;DHT22;55412;51.350;17.056;2023-07-31T11:19:23;20.10;66.90
68433;DHT22;55412;51.350;17.056;2023-07-31T11:21:52;20.10;66.90
68433;DHT22;55412;51.350;17.056;2023-07-31T11:24:20;20.10;67.00
68433;DHT22;55412;51.350;17.056;2023-07-31T11:26:56;20.10;67.80
68433;DHT22;55412;51.350;17.056;2023-07-31T11:29:27;20.20;68.60
68433;DHT22;55412;51.350;17.056;2023-07-31T11:31:54;20.20;68.30
68433;DHT22;55412;51.350;17.056;2023-07-31T11:34:20;20.30;66.80
68433;DHT22;55412;51.350;17.056;2023-07-31T11:36:54;20.30;67.00
68433;DHT22;55412;51.350;17.056;2023-07-31T11:39:21;20.40;67.60
68433;DHT22;55412;51.350;17.056;2023-07-31T11:41:47;20.50;68.00
68433;DHT22;55412;51.350;17.056;2023-07-31T11:44:13;20.50;66.40
68433;DHT22;55412;51.350;17.056;2023-07-31T11:46:40;20.60;63.80
68433;DHT22;55412;51.350;17.056;2023-07-31T11:49:06;20.60;64.30
68433;DHT22;55412;51.350;17.056;2023-07-31T11:51:32;20.70;64.50
68433;DHT22;55412;51.350;17.056;2023-07-31T11:54:00;20.80;64.00
68433;DHT22;55412;51.350;17.056;2023-07-31T11:56:28;20.90;63.00
68433;DHT22;55412;51.350;17.056;2023-07-31T11:58:59;20.90;61.90
68433;DHT22;55412;51.350;17.056;2023-07-31T12:01:27;21.00;61.80
68433;DHT22;55412;51.350;17.056;2023-07-31T12:03:54;21.00;61.30
68433;DHT22;55412;51.350;17.056;2023-07-31T12:06:20;21.00;60.80
68433;DHT22;55412;51.350;17.056;2023-07-31T12:08:47;21.10;60.80
68433;DHT22;55412;51.350;17.056;2023-07-31T12:11:14;21.10;60.70
68433;DHT22;55412;51.350;17.056;2023-07-31T12:13:40;21.10;59.70
68433;DHT22;55412;51.350;17.056;2023-07-31T12:16:07;21.10;60.20
68433;DHT22;55412;51.350;17.056;2023-07-31T12:18:37;21.10;60.90
68433;DHT22;55412;51.350;17.056;2023-07-31T12:21:06;21.20;60.60
68433;DHT22;55412;51.350;17.056;2023-07-31T12:23:35;21.20;60.40
68433;DHT22;55412;51.350;17.056;2023-07-31T12:26:14;21.20;60.60
68433;DHT22;55412;51.350;17.056;2023-07-31T12:28:46;21.20;60.20
68433;DHT22;55412;51.350;17.056;2023-07-31T12:31:18;21.20;60.60
68433;DHT22;55412;51.350;17.056;2023-07-31T12:33:49;21.20;60.30
68433;DHT22;55412;51.350;17.056;2023-07-31T12:36:17;21.20;60.70
68433;DHT22;55412;51.350;17.056;2023-07-31T12:38:51;21.30;60.50
68433;DHT22;55412;51.350;17.056;2023-07-31T12:41:18;21.30;60.20
68433;DHT22;55412;51.350;17.056;2023-07-31T12:43:45;21.30;60.80
68433;DHT22;55412;51.350;17.056;2023-07-31T12:46:11;21.30;59.30
68433;DHT22;55412;51.350;17.056;2023-07-31T12:48:39;21.40;60.20
68433;DHT22;55412;51.350;17.056;2023-07-31T12:51:06;21.40;60.40
68433;DHT22;55412;51.350;17.056;2023-07-31T12:53:33;21.40;60.50
68433;DHT22;55412;51.350;17.056;2023-07-31T12:55:59;21.40;60.10
68433;DHT22;55412;51.350;17.056;2023-07-31T12:58:25;21.50;59.90
68433;DHT22;55412;51.350;17.056;2023-07-31T13:00:56;21.50;59.40
68433;DHT22;55412;51.350;17.056;2023-07-31T13:03:22;21.60;59.70
68433;DHT22;55412;51.350;17.056;2023-07-31T13:05:48;21.60;58.50
68433;DHT22;55412;51.350;17.056;2023-07-31T13:08:18;21.60;58.50
68433;DHT22;55412;51.350;17.056;2023-07-31T13:10:44;21.70;58.60
68433;DHT22;55412;51.350;17.056;2023-07-31T13:13:10;21.70;58.50
68433;DHT22;55412;51.350;17.056;2023-07-31T13:15:37;21.70;58.40
68433;DHT22;55412;51.350;17.056;2023-07-31T13:18:03;21.70;57.50
68433;DHT22;55412;51.350;17.056;2023-07-31T13:20:29;21.80;58.40
68433;DHT22;55412;51.350;17.056;2023-07-31T13:22:55;21.80;57.90
68433;DHT22;55412;51.350;17.056;2023-07-31T13:25:21;21.80;58.20
68433;DHT22;55412;51.350;17.056;2023-07-31T13:27:47;21.80;58.00
68433;DHT22;55412;51.350;17.056;2023-07-31T13:30:14;21.90;58.50
68433;DHT22;55412;51.350;17.056;2023-07-31T13:32:40;22.00;58.50
68433;DHT22;55412;51.350;17.056;2023-07-31T13:35:09;22.00;57.40
68433;DHT22;55412;51.350;17.056;2023-07-31T13:37:37;22.00;58.00
68433;DHT22;55412;51.350;17.056;2023-07-31T13:40:14;22.00;58.20
68433;DHT22;55412;51.350;17.056;2023-07-31T13:42:40;22.00;57.50
68433;DHT22;55412;51.350;17.056;2023-07-31T13:45:06;22.00;57.40
68433;DHT22;55412;51.350;17.056;2023-07-31T13:47:32;22.00;57.10
68433;DHT22;55412;51.350;17.056;2023-07-31T13:49:59;22.00;58.10
68433;DHT22;55412;51.350;17.056;2023-07-31T13:52:26;22.10;58.20
68433;DHT22;55412;51.350;17.056;2023-07-31T13:54:52;22.10;57.50
68433;DHT22;55412;51.350;17.056;2023-07-31T13:57:20;22.10;58.80
68433;DHT22;55412;51.350;17.056;2023-07-31T13:59:50;22.10;59.00
68433;DHT22;55412;51.350;17.056;2023-07-31T14:02:16;22.20;59.20
68433;DHT22;55412;51.350;17.056;2023-07-31T14:04:42;22.30;59.20
68433;DHT22;55412;51.350;17.056;2023-07-31T14:07:08;22.30;58.60
68433;DHT22;55412;51.350;17.056;2023-07-31T14:09:34;22.40;59.10
68433;DHT22;55412;51.350;17.056;2023-07-31T14:12:00;22.40;57.80
68433;DHT22;55412;51.350;17.056;2023-07-31T14:14:26;22.40;59.00
68433;DHT22;55412;51.350;17.056;2023-07-31T14:16:53;22.50;58.40
68433;DHT22;55412;51.350;17.056;2023-07-31T14:19:19;22.50;58.30
68433;DHT22;55412;51.350;17.056;2023-07-31T14:21:47;22.50;56.50
68433;DHT22;55412;51.350;17.056;2023-07-31T14:24:13;22.60;56.70
68433;DHT22;55412;51.350;17.056;2023-07-31T14:26:39;22.60;56.90
68433;DHT22;55412;51.350;17.056;2023-07-31T14:29:05;22.60;56.00
68433;DHT22;55412;51.350;17.056;2023-07-31T14:31:32;22.70;56.30
68433;DHT22;55412;51.350;17.056;2023-07-31T14:33:58;22.70;56.40
68433;DHT22;55412;51.350;17.056;2023-07-31T14:36:24;22.70;55.00
68433;DHT22;55412;51.350;17.056;2023-07-31T14:38:50;22.70;55.50
68433;DHT22;55412;51.350;17.056;2023-07-31T14:41:16;22.70;54.40
68433;DHT22;55412;51.350;17.056;2023-07-31T14:43:42;22.80;55.60
68433;DHT22;55412;51.350;17.056;2023-07-31T14:46:08;22.80;54.40
68433;DHT22;55412;51.350;17.056;2023-07-31T14:48:34;22.80;53.70
68433;DHT22;55412;51.350;17.056;2023-07-31T14:51:00;22.80;53.30
68433;DHT22;55412;51.350;17.056;2023-07-31T14:53:27;22.80;53.90
68433;DHT22;55412;51.350;17.056;2023-07-31T14:55:53;22.80;54.00
68433;DHT22;55412;51.350;17.056;2023-07-31T14:58:19;22.80;53.80
68433;DHT22;55412;51.350;17.056;2023-07-31T15:00:45;22.80;54.00
68433;DHT22;55412;51.350;17.056;2023-07-31T15:03:11;22.80;53.40
68433;DHT22;55412;51.350;17.056;2023-07-31T15:05:38;22.80;54.30
68433;DHT22;55412;51.350;17.056;2023-07-31T15:08:04;22.80;54.40
68433;DHT22;55412;51.350;17.056;2023-07-31T15:10:31;22.80;54.60
68433;DHT22;55412;51.350;17.056;2023-07-31T15:12:58;22.80;54.70
68433;DHT22;55412;51.350;17.056;2023-07-31T15:15:24;22.80;54.90
68433;DHT22;55412;51.350;17.056;2023-07-31T15:17:50;22.80;54.80
68433;DHT22;55412;51.350;17.056;2023-07-31T15:20:17;22.80;55.70